• Join FlightAware (Why Join?)
  • Login
  • US Flag 
10:12AM EDT


 

Airport Tracker/Info


-or-


 

Live Flight TrackerFlight Track Log ✈ FFT920 ✈ 24-Jul-2013 ✈ KRDU - KTTN

Flight Track Log - Related Links

Times and Time Zones

All times are in EDT time to prevent confusion due to time zone crossing. See the FFT920 flight status page for this flight to view local times or setup timezone preferences in your user account.

Time Position Orientation Groundspeed Altitude Reporting Facility
EDT Latitude Longitude Course Direction KTS MPH feet Rate Location/Type
08:47AM 35.8560 -78.8220 220° Southwest 172 198 2,200  Level FlightAware
08:47AM 35.8290 -78.8520 222° Southwest 207 238 3,400 1,980 Climbing FlightAware
08:47AM 35.8230 -78.8620 234° Southwest 213 245 3,900 3,120 Climbing FlightAware
08:48AM 35.8230 -78.8790 270° West 209 241 4,700 3,060 Climbing FlightAware
08:48AM 35.8310 -78.8940 303° West 214 246 5,400 2,580 Climbing FlightAware
08:48AM 35.8460 -78.9010 339° North 225 259 6,000 2,100 Climbing FlightAware
08:49AM 35.8730 -78.8910 17° North 267 307 6,800 2,460 Climbing FlightAware
08:49AM 35.9090 -78.8720 23° Northeast 282 325 8,300 3,000 Climbing FlightAware
08:50AM 35.9430 -78.8520 25° Northeast 284 327 9,800 2,460 Climbing FlightAware
08:50AM 35.9950 -78.8220 25° Northeast 320 368 11,200 1,740 Climbing FlightAware
08:51AM 36.0630 -78.7830 25° Northeast 347 399 12,300 1,920 Climbing FlightAware
08:52AM 36.1210 -78.7490 25° Northeast 362 417 13,900 2,460 Climbing FlightAware
08:52AM 36.1670 -78.7220 25° Northeast 371 427 15,200 2,400 Climbing FlightAware
08:53AM 36.2410 -78.6790 25° Northeast 386 444 17,000 2,280 Climbing FlightAware
08:54AM 36.3150 -78.6370 25° Northeast 398 458 18,700 2,100 Climbing FlightAware
08:54AM 36.3830 -78.6020 23° Northeast 407 468 20,000 1,740 Climbing FlightAware
08:55AM 36.4630 -78.5740 16° North 422 486 21,200 1,680 Climbing FlightAware
08:56AM 36.5290 -78.5500 16° North 432 497 22,200 660 Climbing FlightAware
08:57AM 36.6140 -78.5200 16° North 432 497 22,200  Level FlightAware
08:57AM 36.6920 -78.4920 16° North 432 497 22,200  Level FlightAware
08:58AM 36.7510 -78.4710 16° North 432 497 22,200  Level FlightAware
08:59AM 36.8310 -78.4420 16° North 432 497 22,200 3,300 Level FlightAware
08:59AM 36.8940 -78.3520 49° Northeast 28,800 4,800 Climbing FlightAware
09:01AM 37.0460 -78.2290 33° Northeast 429 494 30,900 840 Climbing FlightAware
09:02AM 37.1470 -78.1460 33° Northeast 429 494 31,000  Climbing FlightAware
09:04AM 37.3670 -77.9650 33° Northeast 431 496 31,000  Level FlightAware
09:04AM 37.4230 -77.9170 34° Northeast 432 497 31,000  Level FlightAware
09:05AM 37.5020 -77.8510 34° Northeast 432 497 31,000  Level FlightAware
09:06AM 37.5630 -77.7980 35° Northeast 434 499 31,000  Level FlightAware
09:06AM 37.6230 -77.7430 36° Northeast 435 501 31,000  Level FlightAware
09:07AM 37.6860 -77.6860 36° Northeast 437 503 31,000  Level FlightAware
09:08AM 37.7630 -77.6160 36° Northeast 438 504 31,000  Level FlightAware
09:08AM 37.8230 -77.5620 35° Northeast 440 506 31,000  Level FlightAware
09:09AM 37.8980 -77.4930 36° Northeast 441 507 31,000  Level FlightAware
09:10AM 37.9640 -77.4330 36° Northeast 444 511 31,000  Level FlightAware
09:10AM 38.0390 -77.3640 36° Northeast 446 513 31,000  Level FlightAware
09:11AM 38.1040 -77.3040 36° Northeast 446 513 31,000  Level FlightAware
09:12AM 38.1800 -77.2350 36° Northeast 445 512 31,000  Level FlightAware
09:13AM 38.2460 -77.1730 36° Northeast 445 512 31,000  Level FlightAware
09:13AM 38.3180 -77.1070 36° Northeast 445 512 31,000 -300 Level FlightAware
09:14AM 38.3930 -77.0380 36° Northeast 446 513 30,600 -1,080 Descending FlightAware
09:15AM 38.4550 -76.9800 36° Northeast 448 516 29,600 -1,980 Descending FlightAware
09:15AM 38.5260 -76.9130 36° Northeast 452 520 28,000 -2,400 Descending FlightAware
09:16AM 38.5970 -76.8470 36° Northeast 453 521 26,300 -2,340 Descending FlightAware
09:17AM 38.6700 -76.7790 36° Northeast 446 513 24,700 -2,100 Descending FlightAware
09:17AM 38.7070 -76.7240 49° Northeast 438 504 23,800 -1,860 Descending FlightAware
09:18AM 38.7310 -76.6260 73° East 424 488 22,600 -1,740 Descending FlightAware
09:19AM 38.7500 -76.5320 75° East 409 471 21,500 -1,740 Descending FlightAware
09:19AM 38.7700 -76.4390 75° East 403 464 20,300 -1,740 Descending FlightAware
09:20AM 38.7890 -76.3470 75° East 398 458 19,200 -1,680 Descending FlightAware
09:21AM 38.8050 -76.2680 75° East 387 445 18,200 -1,680 Descending FlightAware
09:21AM 38.8250 -76.1700 75° East 378 435 17,000 -1,740 Descending FlightAware
09:22AM 38.8340 -76.1260 75° East 376 433 16,400 -1,440 Descending FlightAware
09:22AM 38.8470 -76.0630 75° East 387 445 15,700 -600 Descending FlightAware
09:24AM 38.8870 -75.8670 75° East 368 423 15,200 -300 Descending FlightAware
09:24AM 38.9150 -75.8170 54° Northeast 355 409 15,200 -300 Level FlightAware
09:25AM 38.9630 -75.7710 37° Northeast 361 415 14,900 -840 Descending FlightAware
09:25AM 39.0240 -75.7140 36° Northeast 358 412 14,100 -1,080 Descending FlightAware
09:26AM 39.0650 -75.6810 32° Northeast 347 399 13,600 -1,020 Descending FlightAware
09:27AM 39.1230 -75.6720 North 336 387 13,000 -720 Descending FlightAware
09:27AM 39.1860 -75.6650 North 326 375 12,700 -480 Descending FlightAware
09:28AM 39.2450 -75.6580 North 323 372 12,400 -420 Descending FlightAware
09:29AM 39.3010 -75.6380 15° North 313 360 12,200 -180 Descending FlightAware
09:29AM 39.3600 -75.5880 33° Northeast 311 358 12,200  Level FlightAware
09:30AM 39.4060 -75.5500 33° Northeast 310 357 12,200 -420 Level FlightAware
09:31AM 39.4520 -75.5110 33° Northeast 308 354 11,700 -960 Descending FlightAware
09:31AM 39.5140 -75.4600 32° Northeast 308 354 10,900 -1,080 Descending FlightAware
09:32AM 39.5630 -75.4200 32° Northeast 311 358 10,200 -1,020 Descending FlightAware
09:33AM 39.5910 -75.3960 33° Northeast 310 357 9,800 -1,020 Descending FlightAware
09:33AM 39.6330 -75.3610 33° Northeast 303 349 9,200 -600 Descending FlightAware
09:34AM 39.6630 -75.3360 33° Northeast 294 338 9,200  Level FlightAware
09:34AM 39.6810 -75.3210 33° Northeast 295 339 9,200  Level FlightAware
09:34AM 39.7140 -75.2930 33° Northeast 294 338 9,200  Level FlightAware
09:35AM 39.7430 -75.2690 32° Northeast 296 341 9,200  Level FlightAware
09:35AM 39.7540 -75.2600 32° Northeast 296 341 9,200  Level FlightAware
09:35AM 39.7990 -75.2220 33° Northeast 301 346 9,200 -300 Level FlightAware
09:36AM 39.8300 -75.1970 32° Northeast 298 343 8,900 -1,080 Descending FlightAware
09:36AM 39.8590 -75.1740 31° Northeast 296 341 8,300 -1,740 Descending FlightAware
09:37AM 39.8850 -75.1530 32° Northeast 297 342 7,600 -1,860 Descending FlightAware
09:37AM 39.9090 -75.1330 33° Northeast 298 343 7,000 -1,680 Descending FlightAware
09:37AM 39.9380 -75.1090 32° Northeast 296 341 6,300 -1,500 Descending FlightAware
09:38AM 39.9700 -75.0830 32° Northeast 285 328 5,700 -1,560 Descending FlightAware
09:38AM 40.0040 -75.0540 33° Northeast 286 329 4,800 -1,680 Descending FlightAware
09:39AM 40.0290 -75.0330 33° Northeast 285 328 4,200 -1,020 Descending FlightAware
09:39AM 40.0570 -75.0100 32° Northeast 266 306 4,000 -540 Descending FlightAware
09:40AM 40.0990 -74.9730 34° Northeast 233 268 3,600 -540 Descending FlightAware
09:40AM 40.1110 -74.9620 35° Northeast 217 250 3,500 -600 Descending FlightAware
09:41AM 40.1320 -74.9440 33° Northeast 213 245 3,200 -600 Descending FlightAware
09:41AM 40.1560 -74.9280 27° Northeast 195 224 3,000 -660 Descending FlightAware
09:42AM 40.1820 -74.9160 19° North 182 209 2,600 -780 Descending FlightAware